Stewartsville, Missouri
Current Conditions -  °F | °C
As of 2:53 AM on Friday 24 Oct 2014 (Local Time) from KSTJ Reporting Station
Haze Haze  
Wind Chill: 53°   Ceiling: Unl
Heat Index: 53°   Visibility: 1.2mi
Dew Point: 53°   Wind: 6mph
Humidity: 100%   Direction: 140°SE
Pressure: 30.06"   Gusts: NA
Location:  39.75°N, 94.5°W
Report Text: KSTJ 240753Z AUTO 14005KT 1 1/4SM BR CLR 12/12 A3006 RMK AO2 SLP175 T01170117
Loading
Personal Weather Stations






























Interactive Weather Map
Tropical Storm Tracking
New forecast layout! Learn more

10-Day Weather Forecast

Advertisements
Track Severe Weather on mobile